Time;durP1;ratioP1;P1;durP2;ratioP2;P2;SDS_P1;SDS_P2;PMS_P1;PMS_P2;Temp;Humidity;BMP_temperature;BMP_pressure;BME280_temperature;BME280_humidity;BME280_pressure;Samples;Min_cycle;Max_cycle;Signal;HPM_P1;HPM_P2
2022/06/10 00:00:03;;;;;;;;;;;16.90;95.20;17.00;100100.00;;;;348611;27;88975;-83
2022/06/10 00:00:16;;;;;;;;;;;16.90;95.30;17.00;100095.00;;;;347008;28;83480;-84
2022/06/10 00:00:29;;;;;;;;;;;16.90;95.40;17.10;100100.00;;;;346912;28;92932;-84
2022/06/10 00:00:42;;;;;;;;;;;16.90;95.40;17.10;100103.00;;;;346220;28;82504;-84
2022/06/10 00:00:54;;;;;;;;;;;16.90;95.40;17.10;100095.00;;;;345705;28;91529;-84
2022/06/10 00:01:06;;;;;;;;;;;16.90;95.40;17.10;100097.00;;;;347519;28;83285;-84
2022/06/10 00:01:18;;;;;;;;;;;16.90;95.30;17.10;100094.00;;;;345567;28;92368;-83
2022/06/10 00:01:30;;;;;;;;;;;16.90;95.30;17.20;100090.00;;;;346175;28;82338;-84
2022/06/10 00:01:42;;;;;;;;;;;16.90;95.30;17.10;100092.00;;;;347129;28;88994;-84
2022/06/10 00:01:53;;;;;;;;;;;16.90;95.40;17.10;100102.00;;;;344811;28;83124;-84
2022/06/10 00:02:05;;;;;;;;;;;16.90;95.40;17.10;100088.00;;;;345635;28;90495;-84
2022/06/10 00:02:17;;;;;;;;;;;16.90;95.30;17.20;100094.00;;;;347514;28;83458;-84
2022/06/10 00:02:29;;;;;;;;;;;16.90;95.30;17.10;100094.00;;;;346668;28;92309;-84
2022/06/10 00:02:44;;;;;;;;;;;16.90;95.30;17.20;100100.00;;;;346136;28;83371;-84
2022/06/10 00:02:56;;;;;;;;;;;16.90;95.40;17.10;100101.00;;;;345720;28;92256;-84
2022/06/10 00:03:09;;;;;;;;;;;16.90;95.40;17.10;100103.00;;;;344711;28;82551;-84
2022/06/10 00:03:23;;;;;;;;;;;16.90;95.40;17.10;100097.00;;;;347150;28;89287;-84
2022/06/10 00:03:35;;;;;;;;;;;16.90;95.50;17.10;100101.00;;;;347417;28;83950;-84
2022/06/10 00:03:47;;;;;;;;;;;16.90;95.40;17.00;100101.00;;;;344260;28;91442;-84
2022/06/10 00:03:59;;;;;;;;;;;16.90;95.40;16.90;100100.00;;;;346214;28;83296;-84
2022/06/10 00:04:11;;;;;;;;;;;16.90;95.40;17.00;100107.00;;;;345687;28;88738;-83
2022/06/10 00:04:22;;;;;;;;;;;16.90;95.30;17.00;100094.00;;;;347524;28;82503;-84
2022/06/10 00:04:34;;;;;;;;;;;16.80;95.30;17.00;100095.00;;;;348390;27;91787;-84
2022/06/10 00:04:46;;;;;;;;;;;16.80;95.30;17.00;100099.00;;;;346041;28;83368;-84
2022/06/10 00:04:59;;;;;;;;;;;16.90;95.50;17.10;100095.00;;;;347167;28;90132;-84
2022/06/10 00:05:15;;;;;;;;;;;16.90;95.50;17.00;100098.00;;;;343339;28;82366;-84
2022/06/10 00:05:28;;;;;;;;;;;16.90;95.50;16.90;100097.00;;;;345661;28;92512;-84
2022/06/10 00:05:41;;;;;;;;;;;16.80;95.50;16.90;100099.00;;;;345993;28;83431;-84
2022/06/10 00:06:00;;;;;;;;;;;16.80;95.50;16.90;100098.00;;;;345647;28;90789;-84
2022/06/10 00:06:12;;;;;;;;;;;16.80;95.60;17.00;100100.00;;;;343698;28;82524;-83
2022/06/10 00:06:24;;;;;;;;;;;16.80;95.50;17.00;100099.00;;;;346859;28;90215;-84
2022/06/10 00:06:36;;;;;;;;;;;16.80;95.50;17.00;100096.00;;;;346101;28;83439;-84
2022/06/10 00:06:48;;;;;;;;;;;16.80;95.60;16.90;100097.00;;;;342916;28;90574;-84
2022/06/10 00:07:00;;;;;;;;;;;16.80;95.60;17.00;100097.00;;;;346062;28;83389;-84
2022/06/10 00:07:11;;;;;;;;;;;16.80;95.60;17.00;100099.00;;;;347123;27;92159;-84
2022/06/10 00:07:24;;;;;;;;;;;16.80;95.70;17.00;100101.00;;;;346068;28;83335;-83
2022/06/10 00:07:35;;;;;;;;;;;16.80;95.90;17.00;100088.00;;;;347114;28;91746;-84
2022/06/10 00:07:47;;;;;;;;;;;16.80;95.60;17.00;100101.00;;;;347527;28;84227;-84
2022/06/10 00:07:59;;;;;;;;;;;16.80;95.50;17.00;100098.00;;;;347064;28;91035;-84
2022/06/10 00:08:12;;;;;;;;;;;16.80;95.50;17.00;100092.00;;;;347357;28;83441;-84
2022/06/10 00:08:28;;;;;;;;;;;16.80;95.60;17.10;100103.00;;;;346914;28;90460;-84
2022/06/10 00:08:42;;;;;;;;;;;16.80;95.60;16.90;100102.00;;;;346153;28;83260;-84
2022/06/10 00:08:54;;;;;;;;;;;16.80;95.60;16.90;100100.00;;;;347022;28;89925;-83
2022/06/10 00:09:05;;;;;;;;;;;16.80;95.70;17.00;100096.00;;;;347536;28;82398;-83
2022/06/10 00:09:17;;;;;;;;;;;16.80;95.60;17.00;100097.00;;;;345239;28;88694;-83
2022/06/10 00:09:29;;;;;;;;;;;16.80;95.60;17.00;100099.00;;;;344811;28;83387;-83
2022/06/10 00:09:41;;;;;;;;;;;16.80;95.60;17.10;100097.00;;;;348564;27;89263;-84
2022/06/10 00:09:55;;;;;;;;;;;16.80;95.50;17.10;100095.00;;;;347484;28;83445;-84
2022/06/10 00:10:08;;;;;;;;;;;16.80;95.50;17.00;100099.00;;;;344431;28;90360;-84
2022/06/10 00:10:22;;;;;;;;;;;16.80;95.50;17.00;100102.00;;;;343340;28;83447;-83
2022/06/10 00:10:34;;;;;;;;;;;16.80;95.60;17.00;100093.00;;;;347077;28;88445;-84
2022/06/10 00:10:46;;;;;;;;;;;16.80;95.60;17.00;100099.00;;;;347567;28;83482;-84
2022/06/10 00:10:58;;;;;;;;;;;16.80;95.60;17.00;100103.00;;;;345674;28;92221;-84
2022/06/10 00:11:10;;;;;;;;;;;16.80;95.60;17.00;100096.00;;;;344745;28;82510;-84
2022/06/10 00:11:22;;;;;;;;;;;16.80;95.80;17.00;100096.00;;;;348368;27;91707;-83
2022/06/10 00:11:34;;;;;;;;;;;16.80;95.70;17.10;100093.00;;;;348957;27;83386;-84
2022/06/10 00:11:45;;;;;;;;;;;16.80;95.70;17.10;100093.00;;;;345542;28;92203;-84
2022/06/10 00:11:57;;;;;;;;;;;16.80;95.60;17.10;100101.00;;;;350282;27;83307;-84
2022/06/10 00:12:09;;;;;;;;;;;16.90;95.60;17.10;100094.00;;;;348596;27;90991;-84
2022/06/10 00:12:21;;;;;;;;;;;16.90;95.60;17.10;100097.00;;;;343582;28;83352;-84
2022/06/10 00:12:33;;;;;;;;;;;16.80;95.60;17.10;100084.00;;;;345730;28;88109;-84
2022/06/10 00:12:46;;;;;;;;;;;16.80;95.90;17.00;100092.00;;;;347496;28;83237;-84
2022/06/10 00:12:58;;;;;;;;;;;16.80;95.70;16.90;100098.00;;;;348478;27;89682;-84
2022/06/10 00:13:09;;;;;;;;;;;16.80;95.60;17.00;100095.00;;;;347421;28;83405;-84
2022/06/10 00:13:23;;;;;;;;;;;16.80;95.60;17.00;100095.00;;;;348400;27;91277;-84
2022/06/10 00:13:37;;;;;;;;;;;16.80;95.70;17.00;100098.00;;;;346147;28;82495;-84
2022/06/10 00:13:49;;;;;;;;;;;16.80;95.60;17.00;100092.00;;;;345687;28;88098;-84
2022/06/10 00:14:00;;;;;;;;;;;16.80;95.60;17.10;100095.00;;;;347509;28;83332;-84
2022/06/10 00:14:12;;;;;;;;;;;16.80;95.60;17.10;100094.00;;;;347158;28;88974;-84
2022/06/10 00:14:24;;;;;;;;;;;16.80;95.60;17.10;100089.00;;;;347502;28;83299;-84
2022/06/10 00:14:36;;;;;;;;;;;16.80;95.60;17.10;100095.00;;;;348507;27;91951;-84
2022/06/10 00:14:47;;;;;;;;;;;16.90;95.70;17.10;100093.00;;;;347548;28;82462;-83
2022/06/10 00:14:59;;;;;;;;;;;16.80;95.70;17.00;100095.00;;;;344184;28;93290;-84
2022/06/10 00:15:11;;;;;;;;;;;16.80;95.70;17.10;100095.00;;;;345518;28;83001;-84
2022/06/10 00:15:22;;;;;;;;;;;16.80;95.70;17.00;100097.00;;;;348350;27;90306;-84
2022/06/10 00:15:35;;;;;;;;;;;16.80;95.70;17.00;100085.00;;;;346122;28;83274;-84
2022/06/10 00:15:47;;;;;;;;;;;16.80;95.70;17.00;100099.00;;;;345698;28;88996;-84
2022/06/10 00:15:59;;;;;;;;;;;16.80;95.70;17.00;100099.00;;;;344727;28;83453;-84
2022/06/10 00:16:11;;;;;;;;;;;16.80;95.70;17.00;100092.00;;;;345821;28;88082;-84
2022/06/10 00:16:23;;;;;;;;;;;16.80;95.70;17.00;100094.00;;;;348927;27;82448;-83
2022/06/10 00:16:34;;;;;;;;;;;16.80;95.70;16.90;100097.00;;;;345574;28;91713;-84
2022/06/10 00:16:46;;;;;;;;;;;16.80;95.70;16.90;100100.00;;;;347484;28;83211;-83
2022/06/10 00:16:58;;;;;;;;;;;16.80;95.70;17.00;100094.00;;;;348452;27;90317;-84
2022/06/10 00:17:10;;;;;;;;;;;16.80;95.60;17.10;100092.00;;;;347433;28;83440;-83
2022/06/10 00:17:22;;;;;;;;;;;16.80;95.60;17.10;100093.00;;;;342928;28;91507;-84
2022/06/10 00:17:33;;;;;;;;;;;16.80;95.70;17.10;100094.00;;;;346155;28;82425;-84
2022/06/10 00:17:45;;;;;;;;;;;16.80;95.70;17.10;100091.00;;;;347048;28;87731;-84
2022/06/10 00:17:57;;;;;;;;;;;16.80;95.70;16.90;100093.00;;;;346075;28;83190;-83
2022/06/10 00:18:09;;;;;;;;;;;16.80;95.70;17.00;100091.00;;;;344417;28;91122;-84
2022/06/10 00:18:24;;;;;;;;;;;16.80;95.80;17.00;100090.00;;;;346076;28;83511;-84
2022/06/10 00:18:36;;;;;;;;;;;16.80;95.80;17.00;100094.00;;;;344312;28;90808;-84
2022/06/10 00:18:48;;;;;;;;;;;16.80;95.90;17.00;100093.00;;;;346126;28;83354;-83
2022/06/10 00:19:00;;;;;;;;;;;16.80;95.80;17.10;100093.00;;;;348448;27;91080;-84
2022/06/10 00:19:12;;;;;;;;;;;16.80;95.80;17.00;100094.00;;;;348893;27;83331;-84
2022/06/10 00:19:23;;;;;;;;;;;16.80;95.70;17.10;100093.00;;;;345771;28;88838;-84
2022/06/10 00:19:35;;;;;;;;;;;16.80;95.70;17.10;100085.00;;;;344714;28;83503;-84
2022/06/10 00:19:47;;;;;;;;;;;16.80;95.70;17.10;100093.00;;;;346901;28;91812;-84
2022/06/10 00:19:59;;;;;;;;;;;16.80;95.70;17.00;100091.00;;;;347600;28;83337;-84
2022/06/10 00:20:12;;;;;;;;;;;16.80;95.70;17.00;100097.00;;;;347131;28;89479;-84
2022/06/10 00:20:25;;;;;;;;;;;16.80;95.70;17.10;100089.00;;;;347622;28;83210;-84
2022/06/10 00:20:37;;;;;;;;;;;16.80;95.70;17.00;100096.00;;;;345776;28;88079;-84
2022/06/10 00:20:49;;;;;;;;;;;16.80;95.60;17.10;100097.00;;;;347297;28;83437;-84
2022/06/10 00:21:01;;;;;;;;;;;16.80;95.60;17.10;100093.00;;;;346839;28;89689;-84
2022/06/10 00:21:14;;;;;;;;;;;16.90;95.70;16.90;100095.00;;;;344485;28;83643;-83
2022/06/10 00:21:26;;;;;;;;;;;16.80;95.70;16.90;100100.00;;;;345435;28;90292;-83
2022/06/10 00:21:38;;;;;;;;;;;16.80;95.70;17.00;100097.00;;;;344800;28;83128;-84
2022/06/10 00:21:49;;;;;;;;;;;16.80;95.70;17.10;100101.00;;;;346962;28;91819;-84
2022/06/10 00:22:01;;;;;;;;;;;16.80;95.70;17.10;100095.00;;;;343367;28;83224;-84
2022/06/10 00:22:13;;;;;;;;;;;16.80;95.80;17.10;100095.00;;;;344413;28;87971;-83
2022/06/10 00:22:25;;;;;;;;;;;16.80;95.70;17.10;100097.00;;;;346248;28;82345;-84
2022/06/10 00:22:36;;;;;;;;;;;16.80;95.70;17.00;100098.00;;;;345829;28;88007;-83
2022/06/10 00:22:48;;;;;;;;;;;16.80;95.70;17.10;100089.00;;;;346163;28;83336;-83
2022/06/10 00:23:00;;;;;;;;;;;16.80;95.70;17.10;100097.00;;;;347038;28;91250;-84
2022/06/10 00:23:12;;;;;;;;;;;16.80;95.70;17.00;100095.00;;;;346045;28;82550;-83
2022/06/10 00:23:24;;;;;;;;;;;16.80;95.70;17.00;100095.00;;;;345670;28;90704;-84
2022/06/10 00:23:35;;;;;;;;;;;16.80;95.70;17.10;100093.00;;;;346195;28;83390;-84
2022/06/10 00:23:47;;;;;;;;;;;16.80;95.70;17.10;100089.00;;;;345663;28;87892;-83
2022/06/10 00:23:59;;;;;;;;;;;16.80;95.80;17.10;100090.00;;;;343382;28;83351;-85
2022/06/10 00:24:11;;;;;;;;;;;16.90;95.80;17.10;100101.00;;;;343984;28;91311;-84
2022/06/10 00:24:23;;;;;;;;;;;16.80;95.80;17.10;100100.00;;;;344580;27;83321;-83
2022/06/10 00:24:34;;;;;;;;;;;16.90;95.90;17.10;100102.00;;;;347056;28;88760;-84
2022/06/10 00:24:46;;;;;;;;;;;16.90;95.80;17.10;100101.00;;;;350013;27;82475;-84
2022/06/10 00:24:58;;;;;;;;;;;16.90;95.80;17.20;100096.00;;;;344367;28;88847;-84
2022/06/10 00:25:10;;;;;;;;;;;16.80;95.80;17.10;100097.00;;;;348744;27;83574;-84
2022/06/10 00:25:22;;;;;;;;;;;16.90;95.80;17.10;100099.00;;;;349974;27;89200;-84
2022/06/10 00:25:34;;;;;;;;;;;16.90;95.90;17.10;100096.00;;;;344816;28;82419;-84
2022/06/10 00:25:46;;;;;;;;;;;16.90;95.90;17.00;100096.00;;;;345636;28;89994;-84
2022/06/10 00:25:57;;;;;;;;;;;16.90;96.00;17.10;100091.00;;;;347500;28;82439;-84
2022/06/10 00:26:10;;;;;;;;;;;16.90;96.00;17.10;100100.00;;;;351267;27;90999;-84
2022/06/10 00:26:22;;;;;;;;;;;16.80;95.90;17.00;100093.00;;;;344687;28;83361;-84
2022/06/10 00:26:34;;;;;;;;;;;16.90;95.90;16.90;100097.00;;;;346664;27;90145;-82
2022/06/10 00:26:46;;;;;;;;;;;16.80;95.90;16.90;100095.00;;;;345922;28;83430;-83
2022/06/10 00:26:58;;;;;;;;;;;16.80;95.90;17.00;100095.00;;;;346981;28;93428;-84
2022/06/10 00:27:10;;;;;;;;;;;16.80;95.80;17.10;100088.00;;;;347795;27;83501;-84
2022/06/10 00:27:21;;;;;;;;;;;16.80;95.90;17.10;100087.00;;;;346827;28;91951;-84
2022/06/10 00:27:33;;;;;;;;;;;16.80;95.90;17.10;100102.00;;;;346088;28;83297;-84
2022/06/10 00:27:45;;;;;;;;;;;16.80;95.80;17.00;100089.00;;;;347121;28;88749;-84
2022/06/10 00:27:58;;;;;;;;;;;16.80;95.80;17.00;100100.00;;;;348849;27;83488;-84
2022/06/10 00:28:10;;;;;;;;;;;16.80;95.80;17.00;100091.00;;;;348468;27;91446;-84
2022/06/10 00:28:22;;;;;;;;;;;16.80;95.80;17.10;100097.00;;;;346077;28;82583;-84
2022/06/10 00:28:34;;;;;;;;;;;16.80;95.90;17.10;100094.00;;;;345599;28;90510;-84
2022/06/10 00:28:47;;;;;;;;;;;16.80;95.90;17.10;100094.00;;;;346066;28;83895;-84
2022/06/10 00:29:00;;;;;;;;;;;16.90;95.90;17.00;100094.00;;;;345555;28;92240;-84
2022/06/10 00:29:12;;;;;;;;;;;16.80;95.90;17.00;100093.00;;;;346232;28;83234;-84
2022/06/10 00:29:24;;;;;;;;;;;16.80;95.90;17.00;100092.00;;;;345604;28;92424;-84
2022/06/10 00:29:35;;;;;;;;;;;16.80;95.90;17.10;100093.00;;;;344742;28;83153;-84
2022/06/10 00:29:47;;;;;;;;;;;16.80;95.90;17.10;100091.00;;;;347080;28;88977;-84
2022/06/10 00:29:59;;;;;;;;;;;16.80;95.90;17.00;100093.00;;;;346165;28;82548;-85
2022/06/10 00:30:12;;;;;;;;;;;16.80;95.90;17.00;100092.00;;;;344619;28;89567;-84
2022/06/10 00:30:26;;;;;;;;;;;16.80;96.00;17.10;100089.00;;;;347024;28;83175;-84
2022/06/10 00:30:38;;;;;;;;;;;16.80;96.00;17.10;100096.00;;;;344346;28;88717;-84
2022/06/10 00:30:49;;;;;;;;;;;16.80;95.90;17.00;100089.00;;;;347472;28;83460;-84
2022/06/10 00:31:02;;;;;;;;;;;16.80;95.90;17.10;100091.00;;;;347063;28;90429;-84
2022/06/10 00:31:14;;;;;;;;;;;16.80;95.90;17.10;100092.00;;;;348740;27;83866;-84
2022/06/10 00:31:33;;;;;;;;;;;16.80;95.90;17.10;100095.00;;;;347063;28;91930;-84
2022/06/10 00:31:45;;;;;;;;;;;16.80;95.90;17.10;100096.00;;;;346090;28;82360;-84
2022/06/10 00:31:58;;;;;;;;;;;16.80;95.90;17.10;100095.00;;;;345662;28;91250;-84
2022/06/10 00:32:10;;;;;;;;;;;16.80;95.90;17.10;100093.00;;;;346177;28;83345;-84
2022/06/10 00:32:21;;;;;;;;;;;16.80;96.00;17.00;100093.00;;;;344215;28;92121;-84
2022/06/10 00:32:33;;;;;;;;;;;16.80;96.00;17.10;100090.00;;;;347445;28;83315;-84
2022/06/10 00:32:45;;;;;;;;;;;16.80;96.00;17.10;100097.00;;;;345644;28;92136;-83
2022/06/10 00:32:57;;;;;;;;;;;16.80;96.00;16.90;100097.00;;;;346028;28;83423;-84
2022/06/10 00:33:09;;;;;;;;;;;16.80;95.90;17.00;100090.00;;;;346698;28;92601;-84
2022/06/10 00:33:22;;;;;;;;;;;16.80;95.90;17.10;100091.00;;;;344621;28;83354;-84
2022/06/10 00:33:34;;;;;;;;;;;16.80;95.90;17.10;100098.00;;;;345626;28;91133;-85
2022/06/10 00:33:46;;;;;;;;;;;16.80;95.90;17.00;100093.00;;;;345992;28;83216;-84
2022/06/10 00:33:58;;;;;;;;;;;16.80;95.90;17.10;100091.00;;;;346963;28;92156;-84
2022/06/10 00:34:09;;;;;;;;;;;16.80;95.90;17.00;100089.00;;;;346076;28;83207;-84
2022/06/10 00:34:21;;;;;;;;;;;16.80;95.90;17.00;100088.00;;;;347092;28;90108;-84
2022/06/10 00:34:35;;;;;;;;;;;16.80;95.90;17.10;100090.00;;;;348745;27;83374;-83
2022/06/10 00:34:47;;;;;;;;;;;16.80;95.90;17.10;100089.00;;;;348489;27;89027;-84
2022/06/10 00:34:58;;;;;;;;;;;16.80;95.90;17.00;100094.00;;;;347275;28;83941;-83
2022/06/10 00:35:10;;;;;;;;;;;16.80;95.80;17.10;100090.00;;;;345590;28;91879;-84
2022/06/10 00:35:22;;;;;;;;;;;16.80;95.80;17.10;100090.00;;;;344824;28;82362;-84
2022/06/10 00:35:34;;;;;;;;;;;16.80;95.90;17.00;100091.00;;;;344369;28;87867;-84
2022/06/10 00:35:46;;;;;;;;;;;16.80;95.90;17.00;100086.00;;;;347389;28;83169;-83
2022/06/10 00:35:58;;;;;;;;;;;16.80;95.90;16.90;100090.00;;;;344287;28;91949;-84
2022/06/10 00:36:10;;;;;;;;;;;16.80;95.90;17.00;100091.00;;;;347550;27;83232;-84
2022/06/10 00:36:22;;;;;;;;;;;16.80;96.00;17.10;100091.00;;;;344322;28;91215;-84
2022/06/10 00:36:33;;;;;;;;;;;16.80;96.00;17.10;100097.00;;;;346009;28;83310;-84
2022/06/10 00:36:45;;;;;;;;;;;16.80;96.00;17.00;100095.00;;;;347142;28;89002;-84
2022/06/10 00:36:57;;;;;;;;;;;16.80;96.00;17.00;100089.00;;;;344703;28;83293;-84
2022/06/10 00:37:09;;;;;;;;;;;16.80;95.90;17.00;100093.00;;;;348313;27;91854;-84
2022/06/10 00:37:20;;;;;;;;;;;16.80;95.90;17.00;100088.00;;;;347527;28;83363;-84
2022/06/10 00:37:32;;;;;;;;;;;16.80;95.90;17.00;100083.00;;;;345755;28;89481;-83
2022/06/10 00:37:44;;;;;;;;;;;16.80;95.90;17.00;100095.00;;;;343337;28;83172;-84
2022/06/10 00:37:56;;;;;;;;;;;16.80;95.90;17.00;100092.00;;;;346914;28;90219;-84
2022/06/10 00:38:08;;;;;;;;;;;16.80;95.90;17.10;100095.00;;;;346083;28;83520;-84
2022/06/10 00:38:21;;;;;;;;;;;16.80;95.90;17.00;100087.00;;;;345672;28;91270;-83
2022/06/10 00:38:33;;;;;;;;;;;16.80;96.00;17.00;100089.00;;;;347468;28;82540;-85
2022/06/10 00:38:44;;;;;;;;;;;16.80;96.00;17.00;100092.00;;;;347181;28;89158;-84
2022/06/10 00:38:56;;;;;;;;;;;16.80;96.00;17.00;100088.00;;;;347535;28;83247;-84
2022/06/10 00:39:08;;;;;;;;;;;16.80;96.10;17.00;100088.00;;;;345171;28;90818;-83
2022/06/10 00:39:19;;;;;;;;;;;16.80;96.10;16.90;100091.00;;;;348663;27;83302;-84
2022/06/10 00:39:33;;;;;;;;;;;16.80;96.00;16.90;100088.00;;;;345436;28;92156;-84
2022/06/10 00:39:45;;;;;;;;;;;16.80;96.00;16.90;100087.00;;;;347354;28;83290;-84
2022/06/10 00:39:56;;;;;;;;;;;16.80;95.90;17.00;100090.00;;;;347109;28;89118;-84
2022/06/10 00:40:16;;;;;;;;;;;16.80;96.00;17.00;100088.00;;;;347527;28;82395;-84
2022/06/10 00:40:40;;;;;;;;;;;16.80;96.00;17.00;100084.00;;;;345548;28;89475;-84
2022/06/10 00:40:54;;;;;;;;;;;16.80;96.00;16.90;100093.00;;;;347478;28;83226;-83
2022/06/10 00:41:06;;;;;;;;;;;16.80;96.10;16.90;100091.00;;;;346944;28;90859;-84
2022/06/10 00:41:18;;;;;;;;;;;16.80;96.10;17.00;100087.00;;;;344818;28;83308;-84
2022/06/10 00:41:29;;;;;;;;;;;16.80;96.10;17.00;100086.00;;;;348431;27;89943;-84
2022/06/10 00:41:42;;;;;;;;;;;16.80;96.10;16.90;100089.00;;;;347554;28;83346;-84
2022/06/10 00:41:53;;;;;;;;;;;16.80;96.00;16.80;100085.00;;;;345667;28;91241;-84
2022/06/10 00:42:06;;;;;;;;;;;16.70;96.00;16.90;100086.00;;;;346117;28;82422;-84
2022/06/10 00:42:18;;;;;;;;;;;16.80;96.10;17.00;100091.00;;;;347018;28;91626;-83
2022/06/10 00:42:29;;;;;;;;;;;16.80;96.10;17.00;100080.00;;;;347534;28;82505;-84
2022/06/10 00:42:41;;;;;;;;;;;16.80;96.10;16.90;100082.00;;;;348331;27;93003;-84
2022/06/10 00:42:56;;;;;;;;;;;16.80;96.20;16.80;100084.00;;;;346150;28;83226;-84
2022/06/10 00:43:15;;;;;;;;;;;16.80;96.10;16.80;100087.00;;;;346977;28;88903;-83
2022/06/10 00:43:30;;;;;;;;;;;16.80;96.10;16.90;100088.00;;;;350340;27;83383;-84
2022/06/10 00:43:42;;;;;;;;;;;16.70;96.10;17.00;100088.00;;;;348460;27;90182;-84
2022/06/10 00:43:54;;;;;;;;;;;16.80;96.20;17.00;100079.00;;;;345975;28;83316;-84
2022/06/10 00:44:29;;;;;;;;;;;16.80;96.20;16.90;100089.00;;;;345642;28;91288;-84
2022/06/10 00:44:43;;;;;;;;;;;16.80;96.20;17.00;100081.00;;;;346058;28;83263;-84
2022/06/10 00:44:55;;;;;;;;;;;16.80;96.20;17.00;100081.00;;;;345688;28;91689;-84
2022/06/10 00:45:45;;;;;;;;;;;16.80;96.10;17.00;100088.00;;;;347486;28;83095;-84
2022/06/10 00:46:16;;;;;;;;;;;16.80;96.40;16.90;100087.00;;;;346922;28;91229;-83
2022/06/10 00:46:31;;;;;;;;;;;16.80;96.10;16.90;100088.00;;;;348811;27;82428;-84
2022/06/10 00:46:42;;;;;;;;;;;16.80;96.20;17.00;100085.00;;;;345741;28;89158;-84
2022/06/10 00:46:54;;;;;;;;;;;16.80;96.20;17.00;100088.00;;;;346191;28;83195;-84
2022/06/10 00:47:13;;;;;;;;;;;16.70;96.20;16.90;100081.00;;;;349584;27;92595;-83
2022/06/10 00:47:34;;;;;;;;;;;16.80;96.20;16.90;100082.00;;;;347610;28;83134;-84
2022/06/10 00:47:46;;;;;;;;;;;16.70;96.10;16.90;100085.00;;;;345553;28;89213;-84
2022/06/10 00:47:58;;;;;;;;;;;16.70;96.10;16.90;100081.00;;;;346214;28;83415;-83
2022/06/10 00:48:11;;;;;;;;;;;16.70;96.10;16.90;100080.00;;;;344296;28;92718;-84
2022/06/10 00:48:25;;;;;;;;;;;16.70;96.00;17.00;100085.00;;;;348702;27;83224;-84
2022/06/10 00:48:39;;;;;;;;;;;16.70;96.10;16.90;100084.00;;;;347042;28;92480;-83
2022/06/10 00:48:59;;;;;;;;;;;16.70;96.20;16.90;100088.00;;;;348850;27;83324;-83
2022/06/10 00:49:13;;;;;;;;;;;16.70;96.20;16.80;100082.00;;;;348290;27;92373;-83
2022/06/10 00:49:25;;;;;;;;;;;16.70;96.30;16.80;100083.00;;;;350362;27;83296;-84
2022/06/10 00:49:37;;;;;;;;;;;16.70;96.30;16.80;100088.00;;;;348456;27;90108;-84
2022/06/10 00:49:52;;;;;;;;;;;16.70;96.30;16.80;100082.00;;;;348704;27;83472;-85
2022/06/10 00:50:26;;;;;;;;;;;16.70;96.20;16.90;100093.00;;;;348530;27;89080;-84
2022/06/10 00:50:38;;;;;;;;;;;16.70;96.20;16.90;100088.00;;;;348632;27;83308;-84
2022/06/10 00:50:50;;;;;;;;;;;16.70;96.20;16.80;100079.00;;;;349875;27;90485;-84
2022/06/10 00:51:09;;;;;;;;;;;16.70;96.20;16.80;100070.00;;;;348908;27;83190;-84
2022/06/10 00:51:37;;;;;;;;;;;16.70;96.20;16.80;100089.00;;;;345625;28;90217;-83
2022/06/10 00:51:50;;;;;;;;;;;16.70;96.20;16.80;100086.00;;;;346011;28;82393;-84
2022/06/10 00:52:02;;;;;;;;;;;16.70;96.20;16.90;100094.00;;;;344211;28;90101;-84
2022/06/10 00:52:22;;;;;;;;;;;16.70;96.20;16.90;100083.00;;;;346098;28;82495;-84
2022/06/10 00:52:35;;;;;;;;;;;16.70;96.20;16.90;100092.00;;;;342824;28;92185;-84
2022/06/10 00:52:50;;;;;;;;;;;16.70;96.20;16.80;100073.00;;;;346124;28;83394;-84
2022/06/10 00:53:02;;;;;;;;;;;16.70;96.10;16.70;100077.00;;;;347244;28;88183;-84
2022/06/10 00:53:15;;;;;;;;;;;16.70;96.20;16.70;100085.00;;;;346010;28;83467;-84
2022/06/10 00:53:31;;;;;;;;;;;16.70;96.20;16.70;100076.00;;;;347152;28;88653;-84
2022/06/10 00:53:43;;;;;;;;;;;16.70;96.20;16.80;100083.00;;;;347510;28;82345;-84
2022/06/10 00:54:02;;;;;;;;;;;16.70;96.20;16.70;100084.00;;;;345557;28;92356;-84
2022/06/10 00:54:35;;;;;;;;;;;16.70;96.30;16.70;100083.00;;;;349640;27;83665;-84
2022/06/10 00:54:47;;;;;;;;;;;16.60;96.30;16.80;100087.00;;;;348391;27;91731;-84
2022/06/10 00:54:59;;;;;;;;;;;16.60;96.20;16.80;100080.00;;;;348860;27;83335;-83
2022/06/10 00:55:11;;;;;;;;;;;16.70;96.20;16.80;100084.00;;;;348247;27;93226;-84
2022/06/10 00:55:28;;;;;;;;;;;16.60;96.30;16.80;100079.00;;;;347301;28;83532;-84
2022/06/10 00:55:40;;;;;;;;;;;16.60;96.30;16.80;100087.00;;;;346977;28;92409;-84
2022/06/10 00:55:52;;;;;;;;;;;16.60;96.40;16.70;100085.00;;;;347398;28;83241;-84
2022/06/10 00:56:06;;;;;;;;;;;16.60;96.30;16.80;100083.00;;;;347141;28;90470;-84
2022/06/10 00:56:19;;;;;;;;;;;16.60;96.30;16.80;100079.00;;;;347507;28;83274;-84
2022/06/10 00:56:31;;;;;;;;;;;16.60;96.40;16.80;100081.00;;;;348399;27;91862;-84
2022/06/10 00:56:45;;;;;;;;;;;16.60;96.30;16.80;100084.00;;;;348809;27;82429;-84
2022/06/10 00:57:01;;;;;;;;;;;16.60;96.30;16.80;100087.00;;;;349868;27;89099;-84
2022/06/10 00:57:21;;;;;;;;;;;16.60;96.30;16.80;100086.00;;;;345424;28;82520;-83
2022/06/10 00:57:34;;;;;;;;;;;16.60;96.40;16.80;100086.00;;;;345596;28;91924;-84
2022/06/10 00:57:46;;;;;;;;;;;16.60;96.50;16.80;100082.00;;;;344623;28;83321;-84
2022/06/10 00:58:06;;;;;;;;;;;16.60;96.50;16.70;100084.00;;;;345634;28;90871;-84
2022/06/10 00:58:22;;;;;;;;;;;16.60;96.60;16.80;100086.00;;;;345771;28;83442;-84
2022/06/10 00:58:58;;;;;;;;;;;16.60;96.40;16.80;100086.00;;;;345384;28;90877;-84
2022/06/10 00:59:22;;;;;;;;;;;16.60;96.40;16.80;100090.00;;;;347540;28;83512;-84
2022/06/10 00:59:40;;;;;;;;;;;16.60;96.40;16.80;100092.00;;;;347023;28;91299;-84
2022/06/10 00:59:56;;;;;;;;;;;16.70;96.40;16.70;100095.00;;;;347404;28;83334;-83
2022/06/10 01:00:11;;;;;;;;;;;16.60;96.40;16.80;100088.00;;;;345543;28;91686;-83
2022/06/10 01:00:22;;;;;;;;;;;16.60;96.40;16.80;100093.00;;;;348310;27;83276;-84
2022/06/10 01:00:36;;;;;;;;;;;16.60;96.40;16.80;100086.00;;;;348252;27;90353;-84
2022/06/10 01:00:48;;;;;;;;;;;16.60;96.50;16.80;100089.00;;;;344642;28;82506;-84
2022/06/10 01:01:03;;;;;;;;;;;16.60;96.50;16.70;100083.00;;;;348375;27;90941;-84
2022/06/10 01:01:15;;;;;;;;;;;16.60;96.50;16.80;100080.00;;;;346677;28;83479;-84
2022/06/10 01:01:28;;;;;;;;;;;16.60;96.50;16.80;100090.00;;;;349800;27;88797;-84
2022/06/10 01:01:40;;;;;;;;;;;16.60;96.40;16.80;100090.00;;;;347426;28;83457;-84
2022/06/10 01:01:55;;;;;;;;;;;16.60;96.40;16.80;100080.00;;;;344115;28;92048;-84
2022/06/10 01:02:12;;;;;;;;;;;16.60;96.40;16.80;100085.00;;;;347437;28;82467;-84
2022/06/10 01:02:25;;;;;;;;;;;16.60;96.40;16.70;100087.00;;;;345483;28;91353;-84
2022/06/10 01:02:38;;;;;;;;;;;16.60;96.40;16.70;100090.00;;;;348859;27;83382;-84
2022/06/10 01:02:50;;;;;;;;;;;16.60;96.60;16.80;100087.00;;;;345651;28;91362;-84
2022/06/10 01:03:02;;;;;;;;;;;16.60;96.50;16.80;100084.00;;;;344602;28;83445;-84
2022/06/10 01:03:14;;;;;;;;;;;16.60;96.50;16.80;100087.00;;;;346121;27;92398;-84
2022/06/10 01:03:26;;;;;;;;;;;16.60;96.50;16.80;100089.00;;;;344993;28;82429;-84
2022/06/10 01:03:38;;;;;;;;;;;16.60;96.50;16.80;100087.00;;;;346823;28;89184;-84
2022/06/10 01:03:50;;;;;;;;;;;16.60;96.50;16.80;100088.00;;;;345852;28;83280;-84
2022/06/10 01:04:02;;;;;;;;;;;16.60;96.50;16.80;100075.00;;;;342659;28;91412;-83
2022/06/10 01:04:14;;;;;;;;;;;16.60;96.40;16.70;100081.00;;;;346231;28;83473;-84
2022/06/10 01:04:26;;;;;;;;;;;16.60;96.50;16.80;100079.00;;;;346963;28;89051;-84
2022/06/10 01:04:40;;;;;;;;;;;16.60;96.40;16.80;100087.00;;;;344551;28;83586;-84
2022/06/10 01:04:57;;;;;;;;;;;16.60;96.60;16.70;100080.00;;;;348102;27;92124;-84